createdAt,value
2022-11-29T00:02:37.647Z,95.26
2022-11-29T00:05:41.263Z,94.78
2022-11-29T00:08:44.740Z,94.87
2022-11-29T00:12:06.498Z,95.23
2022-11-29T00:15:09.450Z,95.22
2022-11-29T00:18:12.738Z,94.68
2022-11-29T00:21:15.620Z,94.61
2022-11-29T00:24:18.951Z,94.71
2022-11-29T00:27:21.825Z,94.54
2022-11-29T00:30:25.465Z,94.78
2022-11-29T00:33:28.456Z,94.60
2022-11-29T00:36:31.676Z,95.18
2022-11-29T00:39:35.145Z,95.52
2022-11-29T00:42:38.149Z,95.74
2022-11-29T00:45:41.903Z,96.00
2022-11-29T00:48:45.356Z,95.75
2022-11-29T00:51:48.216Z,96.37
2022-11-29T00:54:51.478Z,95.98
2022-11-29T00:57:54.426Z,96.14
2022-11-29T01:00:58.051Z,96.56
2022-11-29T01:04:02.069Z,96.50
2022-11-29T01:07:05.166Z,96.45
2022-11-29T01:10:08.283Z,96.90
2022-11-29T01:13:11.785Z,96.55
2022-11-29T01:16:15.750Z,96.72
2022-11-29T01:19:19.192Z,97.30
2022-11-29T01:22:23.206Z,97.82
2022-11-29T01:25:26.481Z,97.51
2022-11-29T01:28:30.546Z,97.94
2022-11-29T01:31:37.858Z,98.29
2022-11-29T01:34:41.399Z,98.26
2022-11-29T01:37:44.788Z,98.18
2022-11-29T01:41:06.273Z,97.57
2022-11-29T01:44:12.863Z,96.89
2022-11-29T01:47:17.098Z,96.73
2022-11-29T01:50:20.932Z,97.03
2022-11-29T01:53:23.921Z,97.03
2022-11-29T01:56:28.858Z,97.07
2022-11-29T01:59:31.995Z,97.37
2022-11-29T02:02:41.044Z,96.97
2022-11-29T02:05:51.914Z,97.36
2022-11-29T02:08:54.896Z,97.45
2022-11-29T02:12:15.694Z,97.70
2022-11-29T02:15:26.132Z,97.80
2022-11-29T02:18:44.395Z,96.96
2022-11-29T02:21:52.626Z,96.61
2022-11-29T02:25:10.125Z,96.88
2022-11-29T02:28:15.908Z,96.94
2022-11-29T02:31:38.074Z,97.09
2022-11-29T02:34:53.133Z,97.08
2022-11-29T02:38:15.179Z,97.24
2022-11-29T02:41:20.957Z,98.06
2022-11-29T02:44:52.957Z,97.98
2022-11-29T02:48:07.318Z,98.03
2022-11-29T02:51:16.620Z,97.71
2022-11-29T02:54:36.824Z,97.13
2022-11-29T02:57:51.067Z,97.00
2022-11-29T03:01:03.693Z,96.91
2022-11-29T03:04:32.152Z,97.04
2022-11-29T03:08:16.719Z,96.33
2022-11-29T03:12:02.054Z,96.26
2022-11-29T03:15:19.771Z,96.15
2022-11-29T03:18:44.305Z,95.64
2022-11-29T03:22:12.476Z,96.25
2022-11-29T03:25:26.981Z,96.05
2022-11-29T03:28:54.526Z,97.10
2022-11-29T03:32:03.965Z,97.82
2022-11-29T03:35:40.475Z,97.72
2022-11-29T03:38:46.401Z,96.87
2022-11-29T03:42:06.989Z,96.44
2022-11-29T03:45:25.473Z,96.64
2022-11-29T03:48:35.630Z,96.48
2022-11-29T03:52:10.848Z,96.17
2022-11-29T03:55:47.113Z,96.14
2022-11-29T03:59:18.684Z,97.02
2022-11-29T04:02:47.208Z,96.28
2022-11-29T04:06:21.474Z,96.37
2022-11-29T04:09:36.578Z,96.66
2022-11-29T04:13:17.519Z,96.61
2022-11-29T04:16:45.234Z,98.02
2022-11-29T04:20:11.137Z,98.42
2022-11-29T04:23:51.471Z,98.32
2022-11-29T04:27:13.657Z,98.52
2022-11-29T04:30:24.381Z,98.35
2022-11-29T04:33:49.813Z,98.78
2022-11-29T04:37:15.086Z,98.30
2022-11-29T04:40:28.059Z,98.01
2022-11-29T04:44:07.757Z,97.85
2022-11-29T04:47:41.205Z,97.81
2022-11-29T04:50:54.114Z,97.91
2022-11-29T04:54:05.431Z,98.03
2022-11-29T04:57:38.067Z,98.01
2022-11-29T05:01:01.442Z,98.46
2022-11-29T05:04:19.638Z,99.54
2022-11-29T05:08:00.211Z,98.65
2022-11-29T05:11:15.121Z,98.83
2022-11-29T05:14:29.269Z,98.78
2022-11-29T05:17:51.300Z,99.09
2022-11-29T05:21:07.160Z,98.96
2022-11-29T05:24:41.867Z,98.68
2022-11-29T05:28:20.889Z,98.91
2022-11-29T05:31:23.853Z,99.34
2022-11-29T05:34:46.816Z,99.92
2022-11-29T05:37:54.243Z,100.00
2022-11-29T05:41:15.784Z,100.00
2022-11-29T05:44:28.754Z,100.00
2022-11-29T05:47:49.489Z,100.00
2022-11-29T05:51:10.061Z,100.00
2022-11-29T05:54:30.071Z,100.00
2022-11-29T05:57:59.627Z,100.00
2022-11-29T06:01:40.585Z,100.00
2022-11-29T06:05:13.723Z,100.00
2022-11-29T06:08:35.760Z,100.00
2022-11-29T06:11:45.948Z,100.00
2022-11-29T06:15:17.374Z,100.00
2022-11-29T06:19:06.820Z,100.00
2022-11-29T06:22:21.432Z,100.00
2022-11-29T06:25:24.509Z,100.00
2022-11-29T06:29:09.202Z,100.00
2022-11-29T06:32:45.389Z,100.00
2022-11-29T06:35:57.784Z,100.00
2022-11-29T06:39:00.941Z,100.00
2022-11-29T06:42:04.444Z,100.00
2022-11-29T06:45:08.392Z,100.00
2022-11-29T06:48:15.802Z,100.00
2022-11-29T06:51:19.161Z,100.00
2022-11-29T06:54:35.578Z,100.00
2022-11-29T06:57:57.520Z,100.00
2022-11-29T07:01:07.257Z,100.00
2022-11-29T07:04:22.704Z,100.00
2022-11-29T07:07:25.921Z,100.00
2022-11-29T07:10:32.513Z,100.00
2022-11-29T07:13:35.764Z,100.00
2022-11-29T07:16:57.021Z,99.57
2022-11-29T07:20:20.743Z,99.17
2022-11-29T07:23:39.316Z,97.94
2022-11-29T07:26:55.150Z,97.71
2022-11-29T07:30:05.518Z,97.30
2022-11-29T07:33:27.763Z,96.80
2022-11-29T07:36:52.564Z,95.85
2022-11-29T07:40:14.699Z,95.55
2022-11-29T07:43:21.647Z,95.33
2022-11-29T07:46:25.724Z,95.85
2022-11-29T07:49:29.013Z,95.00
2022-11-29T07:52:31.958Z,95.41
2022-11-29T07:55:36.273Z,95.68
2022-11-29T07:58:39.560Z,95.80
2022-11-29T08:01:42.939Z,95.22
2022-11-29T08:04:46.494Z,94.39
2022-11-29T08:07:50.047Z,93.60
2022-11-29T08:10:53.764Z,92.93
2022-11-29T08:13:58.278Z,91.31
2022-11-29T08:17:01.438Z,91.21
2022-11-29T08:20:05.192Z,91.46
2022-11-29T08:23:11.413Z,91.28
2022-11-29T08:26:15.519Z,90.90
2022-11-29T08:29:20.163Z,90.41
2022-11-29T08:32:23.153Z,90.71
2022-11-29T08:35:27.479Z,90.76
2022-11-29T08:38:30.500Z,90.99
2022-11-29T08:41:33.765Z,88.99
2022-11-29T08:44:36.837Z,90.30
2022-11-29T08:47:42.433Z,90.67
2022-11-29T08:50:45.723Z,90.79
2022-11-29T08:53:52.104Z,90.80
2022-11-29T09:00:19.150Z,91.68
2022-11-29T09:03:40.812Z,90.17
2022-11-29T09:06:44.585Z,89.31
2022-11-29T09:09:48.493Z,90.42
2022-11-29T09:12:51.865Z,90.53
2022-11-29T09:15:55.288Z,90.60
2022-11-29T09:18:59.076Z,90.04
2022-11-29T09:22:02.003Z,89.94
2022-11-29T09:25:06.102Z,89.59
2022-11-29T09:28:09.102Z,89.39
2022-11-29T09:31:15.600Z,90.28
2022-11-29T09:34:18.890Z,89.23
2022-11-29T09:37:23.709Z,89.68
2022-11-29T09:40:34.052Z,88.36
2022-11-29T09:44:22.339Z,87.80
2022-11-29T09:47:44.055Z,87.01
2022-11-29T09:50:50.271Z,86.56
2022-11-29T09:53:57.095Z,86.87
2022-11-29T09:57:00.447Z,87.33
2022-11-29T10:00:06.797Z,88.34
2022-11-29T10:03:33.850Z,86.95
2022-11-29T10:06:39.664Z,86.75
2022-11-29T10:09:56.350Z,84.76
2022-11-29T10:13:05.975Z,85.26
2022-11-29T10:16:19.793Z,85.00
2022-11-29T10:19:33.522Z,84.59
2022-11-29T10:22:53.409Z,84.41
2022-11-29T10:25:58.253Z,83.75
2022-11-29T10:29:01.370Z,84.76
2022-11-29T10:32:12.029Z,84.35
2022-11-29T10:35:18.671Z,83.50
2022-11-29T10:38:36.796Z,81.79
2022-11-29T10:41:40.037Z,80.00
2022-11-29T10:44:43.055Z,78.77
2022-11-29T10:47:47.886Z,77.87
2022-11-29T10:50:52.599Z,78.49
2022-11-29T10:53:56.582Z,76.71
2022-11-29T10:57:00.823Z,75.82
2022-11-29T11:00:10.240Z,72.53
2022-11-29T11:03:43.725Z,71.34
2022-11-29T11:06:58.376Z,72.49
2022-11-29T11:10:02.984Z,70.52
2022-11-29T11:13:20.489Z,70.68
2022-11-29T11:16:26.780Z,70.61
2022-11-29T11:19:34.219Z,70.98
2022-11-29T11:22:40.006Z,69.72
2022-11-29T11:25:43.276Z,70.05
2022-11-29T11:29:00.979Z,69.41
2022-11-29T11:32:05.615Z,68.44
2022-11-29T11:35:22.279Z,67.39
2022-11-29T11:38:25.455Z,65.76
2022-11-29T11:41:49.725Z,65.36
2022-11-29T11:44:53.733Z,63.13
2022-11-29T11:48:10.873Z,61.43
2022-11-29T11:51:23.716Z,60.63
2022-11-29T11:54:27.197Z,60.93
2022-11-29T11:57:31.734Z,59.49
2022-11-29T12:01:08.649Z,59.50
2022-11-29T12:04:20.850Z,59.46
2022-11-29T12:08:06.747Z,59.57
2022-11-29T12:11:07.969Z,59.92
2022-11-29T12:14:21.675Z,60.14
2022-11-29T12:17:42.208Z,60.89
2022-11-29T12:20:54.835Z,62.33
2022-11-29T12:24:12.059Z,62.71
2022-11-29T12:27:16.239Z,64.50
2022-11-29T12:30:19.904Z,66.25
2022-11-29T12:33:44.680Z,66.44
2022-11-29T12:37:02.357Z,66.84
2022-11-29T12:40:28.524Z,67.00
2022-11-29T12:43:51.606Z,66.59
2022-11-29T12:47:34.771Z,67.09
2022-11-29T12:50:33.399Z,66.96
2022-11-29T12:53:45.453Z,66.88
2022-11-29T12:57:10.429Z,66.87
2022-11-29T13:00:16.597Z,66.67
2022-11-29T13:03:27.542Z,66.64
2022-11-29T13:06:42.815Z,65.52
2022-11-29T13:09:50.210Z,64.34
2022-11-29T13:12:56.768Z,64.34
2022-11-29T13:16:30.643Z,63.61
2022-11-29T13:19:54.188Z,61.95
2022-11-29T13:23:52.902Z,60.00
2022-11-29T13:26:52.922Z,59.90
2022-11-29T13:29:58.411Z,58.57
2022-11-29T13:33:02.840Z,56.99
2022-11-29T13:36:18.941Z,54.09
2022-11-29T13:39:37.081Z,53.31
2022-11-29T13:43:04.142Z,53.58
2022-11-29T13:46:20.587Z,54.43
2022-11-29T13:50:03.814Z,54.78
2022-11-29T13:53:13.226Z,55.81
2022-11-29T13:56:43.239Z,57.22
2022-11-29T13:59:49.618Z,58.84
2022-11-29T14:02:54.796Z,61.39
2022-11-29T14:06:02.949Z,63.42
2022-11-29T14:09:27.436Z,64.89
2022-11-29T14:12:40.905Z,66.80
2022-11-29T14:15:44.096Z,67.93
2022-11-29T14:19:05.220Z,69.21
2022-11-29T14:22:20.106Z,70.68
2022-11-29T14:25:50.504Z,71.54
2022-11-29T14:28:48.313Z,71.65
2022-11-29T14:31:52.704Z,72.38
2022-11-29T14:35:11.002Z,72.93
2022-11-29T14:38:20.449Z,73.68
2022-11-29T14:41:39.159Z,73.97
2022-11-29T14:44:51.220Z,74.46
2022-11-29T14:47:54.378Z,74.94
2022-11-29T14:51:20.016Z,75.89
2022-11-29T14:54:22.995Z,77.13
2022-11-29T14:57:45.289Z,77.17
2022-11-29T15:00:48.037Z,78.10
2022-11-29T15:03:52.293Z,78.53
2022-11-29T15:06:56.077Z,78.80
2022-11-29T15:10:04.864Z,79.70
2022-11-29T15:13:12.565Z,81.11
2022-11-29T15:16:35.151Z,81.97
2022-11-29T15:20:04.341Z,81.62
2022-11-29T15:23:15.111Z,82.84
2022-11-29T15:26:21.998Z,83.26
2022-11-29T15:29:26.289Z,84.22
2022-11-29T15:32:32.693Z,84.95
2022-11-29T15:35:36.779Z,85.29
2022-11-29T15:38:48.984Z,85.71
2022-11-29T15:41:53.790Z,85.79
2022-11-29T15:44:57.638Z,86.04
2022-11-29T15:48:16.279Z,86.26
2022-11-29T15:51:30.112Z,86.54
2022-11-29T15:54:42.468Z,87.14
2022-11-29T15:57:48.892Z,86.99
2022-11-29T16:00:52.582Z,87.36
2022-11-29T16:03:57.335Z,87.52
2022-11-29T16:07:00.415Z,87.88
2022-11-29T16:10:07.983Z,87.87
2022-11-29T16:13:38.820Z,89.29
2022-11-29T16:16:44.488Z,89.72
2022-11-29T16:19:48.294Z,90.25
2022-11-29T16:23:12.240Z,90.70
2022-11-29T16:26:26.554Z,90.68
2022-11-29T16:29:38.898Z,90.99
2022-11-29T16:32:47.413Z,90.87
2022-11-29T16:36:08.456Z,91.76
2022-11-29T16:39:23.860Z,91.78
2022-11-29T16:42:31.656Z,91.73
2022-11-29T16:45:42.012Z,91.84
2022-11-29T16:48:45.833Z,92.33
2022-11-29T16:51:49.577Z,93.45
2022-11-29T16:54:55.980Z,93.85
2022-11-29T16:57:59.240Z,93.87
2022-11-29T17:01:20.159Z,94.46
2022-11-29T17:04:25.130Z,94.17
2022-11-29T17:07:33.029Z,94.83
2022-11-29T17:10:43.098Z,94.22
2022-11-29T17:14:41.845Z,94.20
2022-11-29T17:18:13.267Z,95.17
2022-11-29T17:21:25.700Z,95.83
2022-11-29T17:24:30.087Z,96.91
2022-11-29T17:27:33.460Z,97.06
2022-11-29T17:30:36.943Z,96.82
2022-11-29T17:33:40.715Z,96.41
2022-11-29T20:22:27.590Z,99.81
2022-11-29T20:25:31.866Z,99.54
2022-11-29T20:28:37.837Z,100.00
2022-11-29T20:31:49.156Z,100.00
2022-11-29T20:34:56.570Z,100.00
2022-11-29T20:38:36.496Z,100.00
2022-11-29T20:42:16.124Z,100.00
2022-11-29T20:45:24.725Z,99.99
2022-11-29T20:48:50.889Z,99.62
2022-11-29T20:52:04.038Z,99.37
2022-11-29T20:55:07.801Z,100.00
2022-11-29T20:58:12.514Z,100.00
2022-11-29T21:01:16.993Z,100.00
2022-11-29T21:04:23.574Z,100.00
2022-11-29T21:07:27.344Z,100.00
2022-11-29T21:10:31.140Z,100.00
2022-11-29T21:13:34.800Z,100.00
2022-11-29T21:16:39.071Z,100.00
2022-11-29T21:19:42.956Z,100.00
2022-11-29T21:23:03.178Z,100.00
2022-11-29T21:26:17.757Z,100.00
2022-11-29T21:29:23.410Z,100.00
2022-11-29T21:32:27.628Z,100.00
2022-11-29T21:35:30.923Z,100.00
2022-11-29T21:38:33.905Z,100.00
2022-11-29T21:41:37.326Z,100.00
2022-11-29T21:44:40.451Z,100.00
2022-11-29T21:47:44.629Z,100.00
2022-11-29T21:50:50.352Z,100.00
2022-11-29T21:53:53.766Z,100.00
2022-11-29T21:56:57.296Z,100.00
2022-11-29T22:00:00.816Z,100.00
2022-11-29T22:03:04.272Z,100.00
2022-11-29T22:06:18.771Z,100.00
2022-11-29T22:09:21.886Z,100.00
2022-11-29T22:12:34.085Z,100.00
2022-11-29T22:15:37.850Z,100.00
2022-11-29T22:18:41.386Z,100.00
2022-11-29T22:21:47.442Z,100.00
2022-11-29T22:24:50.835Z,99.97
2022-11-29T22:27:54.143Z,100.00
2022-11-29T22:31:09.289Z,100.00
2022-11-29T22:34:12.343Z,100.00
2022-11-29T22:37:15.801Z,100.00
2022-11-29T22:40:18.951Z,100.00
2022-11-29T22:43:22.357Z,100.00
2022-11-29T22:46:27.533Z,100.00
2022-11-29T22:49:33.205Z,100.00
2022-11-29T22:52:36.602Z,100.00
2022-11-29T22:55:39.989Z,100.00
2022-11-29T22:58:43.166Z,100.00
2022-11-29T23:01:48.137Z,100.00
2022-11-29T23:04:51.278Z,100.00
2022-11-29T23:07:55.550Z,100.00
2022-11-29T23:11:01.121Z,100.00
2022-11-29T23:14:05.538Z,100.00
2022-11-29T23:17:08.782Z,100.00
2022-11-29T23:20:12.868Z,100.00
2022-11-29T23:23:15.979Z,100.00
2022-11-29T23:26:25.149Z,100.00
2022-11-29T23:29:28.123Z,100.00
2022-11-29T23:32:31.196Z,100.00
2022-11-29T23:35:34.421Z,99.60
2022-11-29T23:38:38.177Z,99.28
2022-11-29T23:41:41.121Z,100.00
2022-11-29T23:44:45.568Z,99.48
2022-11-29T23:47:49.244Z,99.43
2022-11-29T23:50:52.449Z,99.65
2022-11-29T23:53:55.491Z,99.81
2022-11-29T23:56:59.560Z,100.00
